sensor_id;sensor_type;location;lat;lon;timestamp;pressure;altitude;pressure_sealevel;temperature;humidity
77526;BME280;66627;29.424;-98.496;2023-07-29T00:00:51;98902.97;;;38.06;15.91
77526;BME280;66627;29.424;-98.496;2023-07-29T00:03:16;98901.68;;;37.93;16.51
77526;BME280;66627;29.424;-98.496;2023-07-29T00:05:42;98900.82;;;38.59;16.49
77526;BME280;66627;29.424;-98.496;2023-07-29T00:08:06;98905.91;;;37.55;16.05
77526;BME280;66627;29.424;-98.496;2023-07-29T00:10:33;98908.02;;;38.32;16.15
77526;BME280;66627;29.424;-98.496;2023-07-29T00:12:57;98902.19;;;38.61;16.62
77526;BME280;66627;29.424;-98.496;2023-07-29T00:15:23;98897.83;;;38.53;15.84
77526;BME280;66627;29.424;-98.496;2023-07-29T00:17:53;98900.84;;;38.47;15.86
77526;BME280;66627;29.424;-98.496;2023-07-29T00:20:15;98901.32;;;38.85;16.11
77526;BME280;66627;29.424;-98.496;2023-07-29T00:22:38;98904.69;;;37.73;16.53
77526;BME280;66627;29.424;-98.496;2023-07-29T00:25:05;98905.40;;;38.12;16.70
77526;BME280;66627;29.424;-98.496;2023-07-29T00:27:29;98904.71;;;37.26;17.15
77526;BME280;66627;29.424;-98.496;2023-07-29T00:29:55;98905.78;;;37.41;17.17
77526;BME280;66627;29.424;-98.496;2023-07-29T00:32:23;98909.95;;;37.08;17.45
77526;BME280;66627;29.424;-98.496;2023-07-29T00:34:46;98909.34;;;37.98;16.79
77526;BME280;66627;29.424;-98.496;2023-07-29T00:37:12;98909.82;;;37.02;17.30
77526;BME280;66627;29.424;-98.496;2023-07-29T00:39:37;98912.51;;;37.34;17.61
77526;BME280;66627;29.424;-98.496;2023-07-29T00:42:02;98913.19;;;36.66;17.83
77526;BME280;66627;29.424;-98.496;2023-07-29T00:44:27;98915.79;;;37.14;17.41
77526;BME280;66627;29.424;-98.496;2023-07-29T00:46:53;98912.34;;;37.08;17.48
77526;BME280;66627;29.424;-98.496;2023-07-29T00:49:18;98916.30;;;36.67;17.59
77526;BME280;66627;29.424;-98.496;2023-07-29T00:51:43;98911.27;;;37.32;17.29
77526;BME280;66627;29.424;-98.496;2023-07-29T00:54:09;98914.43;;;37.38;17.01
77526;BME280;66627;29.424;-98.496;2023-07-29T00:56:34;98911.18;;;36.55;17.34
77526;BME280;66627;29.424;-98.496;2023-07-29T00:58:59;98908.74;;;37.41;17.17
77526;BME280;66627;29.424;-98.496;2023-07-29T01:01:25;98910.91;;;37.06;17.34
77526;BME280;66627;29.424;-98.496;2023-07-29T01:03:50;98909.99;;;37.15;17.26
77526;BME280;66627;29.424;-98.496;2023-07-29T01:06:24;98915.29;;;37.04;17.19
77526;BME280;66627;29.424;-98.496;2023-07-29T01:08:51;98912.19;;;36.76;17.46
77526;BME280;66627;29.424;-98.496;2023-07-29T01:11:18;98914.87;;;36.51;17.74
77526;BME280;66627;29.424;-98.496;2023-07-29T01:13:37;98917.52;;;36.15;17.79
77526;BME280;66627;29.424;-98.496;2023-07-29T01:16:02;98921.87;;;35.75;18.63
77526;BME280;66627;29.424;-98.496;2023-07-29T01:18:24;98922.01;;;35.90;18.29
77526;BME280;66627;29.424;-98.496;2023-07-29T01:20:48;98924.03;;;35.97;18.66
77526;BME280;66627;29.424;-98.496;2023-07-29T01:23:13;98930.41;;;36.14;18.68
77526;BME280;66627;29.424;-98.496;2023-07-29T01:25:38;98930.72;;;34.88;20.23
77526;BME280;66627;29.424;-98.496;2023-07-29T01:28:04;98934.27;;;35.30;21.09
77526;BME280;66627;29.424;-98.496;2023-07-29T01:30:33;98940.68;;;35.87;21.11
77526;BME280;66627;29.424;-98.496;2023-07-29T01:32:56;98943.00;;;35.27;22.31
77526;BME280;66627;29.424;-98.496;2023-07-29T01:35:26;98946.64;;;34.80;22.96
77526;BME280;66627;29.424;-98.496;2023-07-29T01:37:51;98954.70;;;34.92;23.16
77526;BME280;66627;29.424;-98.496;2023-07-29T01:40:11;98958.65;;;35.00;23.23
77526;BME280;66627;29.424;-98.496;2023-07-29T01:42:37;98967.48;;;34.95;23.53
77526;BME280;66627;29.424;-98.496;2023-07-29T01:45:03;98970.56;;;33.75;24.47
77526;BME280;66627;29.424;-98.496;2023-07-29T01:47:27;98979.56;;;33.39;25.11
77526;BME280;66627;29.424;-98.496;2023-07-29T01:49:53;98976.40;;;34.63;24.18
77526;BME280;66627;29.424;-98.496;2023-07-29T01:52:19;98978.22;;;34.75;23.99
77526;BME280;66627;29.424;-98.496;2023-07-29T01:54:45;98982.40;;;33.60;25.01
77526;BME280;66627;29.424;-98.496;2023-07-29T01:57:10;98985.26;;;33.41;24.93
77526;BME280;66627;29.424;-98.496;2023-07-29T01:59:35;98992.57;;;34.23;24.69
77526;BME280;66627;29.424;-98.496;2023-07-29T02:02:00;98997.40;;;33.33;25.59
77526;BME280;66627;29.424;-98.496;2023-07-29T02:04:26;99001.35;;;33.10;25.90
77526;BME280;66627;29.424;-98.496;2023-07-29T02:06:52;99009.04;;;33.79;25.35
77526;BME280;66627;29.424;-98.496;2023-07-29T02:09:17;99017.27;;;33.25;25.52
77526;BME280;66627;29.424;-98.496;2023-07-29T02:11:42;99022.76;;;32.92;25.80
77526;BME280;66627;29.424;-98.496;2023-07-29T02:14:08;99025.53;;;33.16;25.69
77526;BME280;66627;29.424;-98.496;2023-07-29T02:16:33;99026.22;;;32.68;25.97
77526;BME280;66627;29.424;-98.496;2023-07-29T02:18:58;99029.85;;;33.08;25.48
77526;BME280;66627;29.424;-98.496;2023-07-29T02:21:23;99029.48;;;32.81;25.54
77526;BME280;66627;29.424;-98.496;2023-07-29T02:23:48;99032.82;;;31.99;25.94
77526;BME280;66627;29.424;-98.496;2023-07-29T02:26:14;99040.17;;;32.75;25.87
77526;BME280;66627;29.424;-98.496;2023-07-29T02:28:40;99041.99;;;32.76;25.56
77526;BME280;66627;29.424;-98.496;2023-07-29T02:31:14;99049.40;;;32.77;25.35
77526;BME280;66627;29.424;-98.496;2023-07-29T02:33:31;99049.42;;;32.18;25.39
77526;BME280;66627;29.424;-98.496;2023-07-29T02:35:57;99057.40;;;32.72;25.27
77526;BME280;66627;29.424;-98.496;2023-07-29T02:38:22;99061.63;;;32.35;24.96
77526;BME280;66627;29.424;-98.496;2023-07-29T02:40:48;99062.58;;;31.90;24.97
77526;BME280;66627;29.424;-98.496;2023-07-29T02:43:13;99071.67;;;32.62;24.59
77526;BME280;66627;29.424;-98.496;2023-07-29T02:45:38;99067.45;;;32.22;24.45
77526;BME280;66627;29.424;-98.496;2023-07-29T02:48:04;99074.54;;;31.96;24.68
77526;BME280;66627;29.424;-98.496;2023-07-29T02:50:29;99080.77;;;32.14;24.80
77526;BME280;66627;29.424;-98.496;2023-07-29T02:52:54;99084.34;;;32.08;25.19
77526;BME280;66627;29.424;-98.496;2023-07-29T02:55:20;99080.83;;;31.48;25.54
77526;BME280;66627;29.424;-98.496;2023-07-29T02:57:45;99080.49;;;31.87;25.38
77526;BME280;66627;29.424;-98.496;2023-07-29T03:00:11;99085.35;;;31.95;25.83
77526;BME280;66627;29.424;-98.496;2023-07-29T03:02:35;99084.38;;;31.66;26.09
77526;BME280;66627;29.424;-98.496;2023-07-29T03:05:01;99083.61;;;32.17;26.09
77526;BME280;66627;29.424;-98.496;2023-07-29T03:07:26;99080.63;;;32.07;26.91
77526;BME280;66627;29.424;-98.496;2023-07-29T03:09:51;99092.86;;;31.63;27.70
77526;BME280;66627;29.424;-98.496;2023-07-29T03:12:16;99089.82;;;31.21;28.48
77526;BME280;66627;29.424;-98.496;2023-07-29T03:14:41;99096.57;;;31.18;28.81
77526;BME280;66627;29.424;-98.496;2023-07-29T03:17:06;99100.84;;;31.86;28.75
77526;BME280;66627;29.424;-98.496;2023-07-29T03:19:32;99107.44;;;31.48;29.45
77526;BME280;66627;29.424;-98.496;2023-07-29T03:21:57;99113.26;;;31.10;30.24
77526;BME280;66627;29.424;-98.496;2023-07-29T03:24:22;99110.43;;;30.95;30.79
77526;BME280;66627;29.424;-98.496;2023-07-29T03:26:48;99119.47;;;31.25;30.66
77526;BME280;66627;29.424;-98.496;2023-07-29T03:29:13;99126.04;;;31.19;31.12
77526;BME280;66627;29.424;-98.496;2023-07-29T03:31:40;99128.31;;;31.34;30.75
77526;BME280;66627;29.424;-98.496;2023-07-29T03:34:05;99129.22;;;30.83;31.62
77526;BME280;66627;29.424;-98.496;2023-07-29T03:36:30;99136.04;;;31.30;31.69
77526;BME280;66627;29.424;-98.496;2023-07-29T03:38:57;99138.92;;;30.81;32.24
77526;BME280;66627;29.424;-98.496;2023-07-29T03:41:21;99145.24;;;30.63;32.20
77526;BME280;66627;29.424;-98.496;2023-07-29T03:43:46;99145.88;;;31.06;32.16
77526;BME280;66627;29.424;-98.496;2023-07-29T03:46:12;99146.06;;;31.29;31.66
77526;BME280;66627;29.424;-98.496;2023-07-29T03:48:37;99151.65;;;30.56;32.60
77526;BME280;66627;29.424;-98.496;2023-07-29T03:51:03;99157.64;;;31.19;31.97
77526;BME280;66627;29.424;-98.496;2023-07-29T03:53:28;99160.29;;;31.04;32.23
77526;BME280;66627;29.424;-98.496;2023-07-29T03:55:54;99163.04;;;31.69;31.60
77526;BME280;66627;29.424;-98.496;2023-07-29T03:58:19;99165.28;;;31.04;32.56
77526;BME280;66627;29.424;-98.496;2023-07-29T04:00:45;99175.42;;;30.68;33.21
77526;BME280;66627;29.424;-98.496;2023-07-29T04:03:10;99173.26;;;30.55;33.47
77526;BME280;66627;29.424;-98.496;2023-07-29T04:05:35;99177.66;;;31.39;32.43
77526;BME280;66627;29.424;-98.496;2023-07-29T04:08:00;99179.47;;;30.16;33.96
77526;BME280;66627;29.424;-98.496;2023-07-29T04:10:27;99187.49;;;29.39;34.85
77526;BME280;66627;29.424;-98.496;2023-07-29T04:12:51;99189.67;;;30.24;34.09
77526;BME280;66627;29.424;-98.496;2023-07-29T04:15:17;99186.85;;;30.22;34.06
77526;BME280;66627;29.424;-98.496;2023-07-29T04:17:42;99184.67;;;30.43;33.98
77526;BME280;66627;29.424;-98.496;2023-07-29T04:20:09;99185.85;;;30.05;34.23
77526;BME280;66627;29.424;-98.496;2023-07-29T04:22:33;99188.46;;;30.48;34.04
77526;BME280;66627;29.424;-98.496;2023-07-29T04:24:58;99194.49;;;30.20;33.85
77526;BME280;66627;29.424;-98.496;2023-07-29T04:27:23;99196.23;;;31.30;33.08
77526;BME280;66627;29.424;-98.496;2023-07-29T04:29:48;99197.20;;;30.61;33.50
77526;BME280;66627;29.424;-98.496;2023-07-29T04:32:14;99200.83;;;31.38;32.73
77526;BME280;66627;29.424;-98.496;2023-07-29T04:34:39;99210.42;;;30.35;33.96
77526;BME280;66627;29.424;-98.496;2023-07-29T04:37:06;99209.36;;;30.53;33.58
77526;BME280;66627;29.424;-98.496;2023-07-29T04:39:30;99218.76;;;30.38;34.32
77526;BME280;66627;29.424;-98.496;2023-07-29T04:41:56;99220.69;;;31.24;33.12
77526;BME280;66627;29.424;-98.496;2023-07-29T04:44:22;99226.21;;;30.71;34.01
77526;BME280;66627;29.424;-98.496;2023-07-29T04:46:47;99226.58;;;30.79;33.79
77526;BME280;66627;29.424;-98.496;2023-07-29T04:49:14;99229.34;;;30.16;34.75
77526;BME280;66627;29.424;-98.496;2023-07-29T04:51:38;99228.94;;;30.56;34.40
77526;BME280;66627;29.424;-98.496;2023-07-29T04:54:04;99229.24;;;30.50;34.55
77526;BME280;66627;29.424;-98.496;2023-07-29T04:56:28;99233.02;;;29.68;35.66
77526;BME280;66627;29.424;-98.496;2023-07-29T04:58:54;99232.00;;;29.95;35.71
77526;BME280;66627;29.424;-98.496;2023-07-29T05:01:20;99232.60;;;29.68;36.20
77526;BME280;66627;29.424;-98.496;2023-07-29T05:03:45;99235.21;;;29.65;36.25
77526;BME280;66627;29.424;-98.496;2023-07-29T05:06:10;99234.85;;;30.47;35.37
77526;BME280;66627;29.424;-98.496;2023-07-29T05:08:36;99240.30;;;30.29;35.68
77526;BME280;66627;29.424;-98.496;2023-07-29T05:11:01;99243.56;;;29.52;36.48
77526;BME280;66627;29.424;-98.496;2023-07-29T05:13:27;99246.20;;;30.13;36.06
77526;BME280;66627;29.424;-98.496;2023-07-29T05:15:52;99248.42;;;30.16;35.87
77526;BME280;66627;29.424;-98.496;2023-07-29T05:18:18;99250.16;;;29.99;36.08
77526;BME280;66627;29.424;-98.496;2023-07-29T05:20:43;99250.27;;;30.08;36.23
77526;BME280;66627;29.424;-98.496;2023-07-29T05:23:08;99247.84;;;29.90;36.53
77526;BME280;66627;29.424;-98.496;2023-07-29T05:25:33;99247.60;;;29.71;36.96
77526;BME280;66627;29.424;-98.496;2023-07-29T05:27:59;99244.79;;;29.72;37.29
77526;BME280;66627;29.424;-98.496;2023-07-29T05:30:24;99244.91;;;30.14;36.62
77526;BME280;66627;29.424;-98.496;2023-07-29T05:35:16;99238.17;;;30.46;36.24
77526;BME280;66627;29.424;-98.496;2023-07-29T05:37:42;99234.08;;;29.48;37.57
77526;BME280;66627;29.424;-98.496;2023-07-29T05:40:08;99234.53;;;30.02;36.91
77526;BME280;66627;29.424;-98.496;2023-07-29T05:42:32;99238.75;;;30.29;37.36
77526;BME280;66627;29.424;-98.496;2023-07-29T05:44:58;99242.63;;;29.52;38.08
77526;BME280;66627;29.424;-98.496;2023-07-29T05:47:23;99244.34;;;29.56;38.00
77526;BME280;66627;29.424;-98.496;2023-07-29T05:49:49;99245.01;;;30.13;37.88
77526;BME280;66627;29.424;-98.496;2023-07-29T05:52:15;99247.16;;;29.02;39.63
77526;BME280;66627;29.424;-98.496;2023-07-29T05:54:40;99248.80;;;29.22;39.45
77526;BME280;66627;29.424;-98.496;2023-07-29T05:57:06;99248.85;;;29.36;39.55
77526;BME280;66627;29.424;-98.496;2023-07-29T05:59:31;99249.72;;;30.54;37.94
77526;BME280;66627;29.424;-98.496;2023-07-29T06:01:56;99252.00;;;29.34;39.30
77526;BME280;66627;29.424;-98.496;2023-07-29T06:04:21;99254.50;;;30.81;37.59
77526;BME280;66627;29.424;-98.496;2023-07-29T06:06:47;99254.31;;;30.53;37.79
77526;BME280;66627;29.424;-98.496;2023-07-29T06:09:13;99253.05;;;30.17;38.30
77526;BME280;66627;29.424;-98.496;2023-07-29T06:11:38;99249.77;;;29.87;38.55
77526;BME280;66627;29.424;-98.496;2023-07-29T06:14:03;99246.89;;;30.20;38.34
77526;BME280;66627;29.424;-98.496;2023-07-29T06:16:28;99246.69;;;31.26;37.09
77526;BME280;66627;29.424;-98.496;2023-07-29T06:18:53;99248.02;;;28.70;39.81
77526;BME280;66627;29.424;-98.496;2023-07-29T06:21:19;99248.74;;;30.00;38.56
77526;BME280;66627;29.424;-98.496;2023-07-29T06:23:44;99251.45;;;30.37;38.16
77526;BME280;66627;29.424;-98.496;2023-07-29T06:26:10;99251.95;;;30.18;38.54
77526;BME280;66627;29.424;-98.496;2023-07-29T06:28:36;99250.27;;;29.63;39.80
77526;BME280;66627;29.424;-98.496;2023-07-29T06:31:02;99248.45;;;29.40;40.61
77526;BME280;66627;29.424;-98.496;2023-07-29T06:33:27;99251.19;;;29.31;41.27
77526;BME280;66627;29.424;-98.496;2023-07-29T06:35:52;99252.13;;;28.00;44.61
77526;BME280;66627;29.424;-98.496;2023-07-29T06:38:18;99254.66;;;28.62;43.70
77526;BME280;66627;29.424;-98.496;2023-07-29T06:40:43;99255.40;;;28.69;43.68
77526;BME280;66627;29.424;-98.496;2023-07-29T06:43:09;99255.38;;;28.97;43.73
77526;BME280;66627;29.424;-98.496;2023-07-29T06:45:34;99257.44;;;29.26;43.28
77526;BME280;66627;29.424;-98.496;2023-07-29T06:47:59;99257.72;;;29.86;42.04
77526;BME280;66627;29.424;-98.496;2023-07-29T06:50:25;99253.09;;;28.42;44.38
77526;BME280;66627;29.424;-98.496;2023-07-29T06:52:50;99255.78;;;29.23;43.21
77526;BME280;66627;29.424;-98.496;2023-07-29T06:55:16;99253.11;;;28.36;45.30
77526;BME280;66627;29.424;-98.496;2023-07-29T06:57:41;99259.49;;;29.02;44.27
77526;BME280;66627;29.424;-98.496;2023-07-29T07:00:07;99258.00;;;29.84;43.25
77526;BME280;66627;29.424;-98.496;2023-07-29T07:02:32;99256.88;;;28.12;45.76
77526;BME280;66627;29.424;-98.496;2023-07-29T07:04:58;99253.36;;;28.49;45.18
77526;BME280;66627;29.424;-98.496;2023-07-29T07:07:23;99254.87;;;28.95;44.46
77526;BME280;66627;29.424;-98.496;2023-07-29T07:09:49;99255.37;;;28.58;45.12
77526;BME280;66627;29.424;-98.496;2023-07-29T07:12:14;99258.98;;;29.18;44.15
77526;BME280;66627;29.424;-98.496;2023-07-29T07:14:39;99254.03;;;28.63;45.18
77526;BME280;66627;29.424;-98.496;2023-07-29T07:17:05;99257.10;;;28.81;44.56
77526;BME280;66627;29.424;-98.496;2023-07-29T07:19:30;99253.40;;;29.20;44.25
77526;BME280;66627;29.424;-98.496;2023-07-29T07:21:56;99248.54;;;29.36;44.42
77526;BME280;66627;29.424;-98.496;2023-07-29T07:24:21;99239.41;;;29.52;43.61
77526;BME280;66627;29.424;-98.496;2023-07-29T07:26:46;99237.98;;;28.51;45.42
77526;BME280;66627;29.424;-98.496;2023-07-29T07:29:12;99236.70;;;28.29;45.83
77526;BME280;66627;29.424;-98.496;2023-07-29T07:31:37;99240.44;;;29.28;44.24
77526;BME280;66627;29.424;-98.496;2023-07-29T07:34:03;99240.21;;;29.25;44.70
77526;BME280;66627;29.424;-98.496;2023-07-29T07:36:29;99236.35;;;28.88;44.71
77526;BME280;66627;29.424;-98.496;2023-07-29T07:38:54;99231.45;;;29.25;44.30
77526;BME280;66627;29.424;-98.496;2023-07-29T07:41:19;99224.05;;;29.38;43.60
77526;BME280;66627;29.424;-98.496;2023-07-29T07:43:45;99219.98;;;28.21;45.86
77526;BME280;66627;29.424;-98.496;2023-07-29T07:46:10;99220.50;;;28.54;45.34
77526;BME280;66627;29.424;-98.496;2023-07-29T07:48:36;99221.87;;;29.05;44.51
77526;BME280;66627;29.424;-98.496;2023-07-29T07:51:04;99221.16;;;28.80;44.52
77526;BME280;66627;29.424;-98.496;2023-07-29T07:53:26;99217.84;;;29.76;43.27
77526;BME280;66627;29.424;-98.496;2023-07-29T07:55:51;99215.88;;;29.40;44.09
77526;BME280;66627;29.424;-98.496;2023-07-29T07:58:17;99214.58;;;28.80;44.83
77526;BME280;66627;29.424;-98.496;2023-07-29T08:00:42;99215.10;;;29.08;44.26
77526;BME280;66627;29.424;-98.496;2023-07-29T08:03:07;99212.59;;;29.32;43.96
77526;BME280;66627;29.424;-98.496;2023-07-29T08:05:33;99212.79;;;29.57;43.59
77526;BME280;66627;29.424;-98.496;2023-07-29T08:07:58;99207.61;;;29.02;44.13
77526;BME280;66627;29.424;-98.496;2023-07-29T08:10:24;99208.32;;;29.58;42.76
77526;BME280;66627;29.424;-98.496;2023-07-29T08:12:49;99212.84;;;28.85;44.74
77526;BME280;66627;29.424;-98.496;2023-07-29T08:15:14;99216.58;;;29.74;43.68
77526;BME280;66627;29.424;-98.496;2023-07-29T08:17:39;99215.94;;;30.00;42.79
77526;BME280;66627;29.424;-98.496;2023-07-29T08:20:04;99218.20;;;29.05;44.38
77526;BME280;66627;29.424;-98.496;2023-07-29T08:22:29;99211.40;;;29.79;43.18
77526;BME280;66627;29.424;-98.496;2023-07-29T08:24:55;99211.25;;;28.91;44.87
77526;BME280;66627;29.424;-98.496;2023-07-29T08:27:29;99207.71;;;29.61;43.79
77526;BME280;66627;29.424;-98.496;2023-07-29T08:29:46;99207.04;;;29.24;43.63
77526;BME280;66627;29.424;-98.496;2023-07-29T08:32:11;99201.57;;;29.55;43.20
77526;BME280;66627;29.424;-98.496;2023-07-29T08:34:36;99201.80;;;29.35;43.87
77526;BME280;66627;29.424;-98.496;2023-07-29T08:37:02;99202.87;;;29.59;43.42
77526;BME280;66627;29.424;-98.496;2023-07-29T08:39:27;99204.95;;;28.27;45.81
77526;BME280;66627;29.424;-98.496;2023-07-29T08:41:59;99201.80;;;29.23;44.08
77526;BME280;66627;29.424;-98.496;2023-07-29T08:44:21;99207.04;;;29.02;44.38
77526;BME280;66627;29.424;-98.496;2023-07-29T08:46:42;99202.41;;;29.25;44.05
77526;BME280;66627;29.424;-98.496;2023-07-29T08:49:08;99206.30;;;29.36;43.86
77526;BME280;66627;29.424;-98.496;2023-07-29T08:51:33;99205.25;;;28.45;45.18
77526;BME280;66627;29.424;-98.496;2023-07-29T08:53:59;99207.75;;;28.91;44.53
77526;BME280;66627;29.424;-98.496;2023-07-29T08:56:25;99209.21;;;28.71;44.76
77526;BME280;66627;29.424;-98.496;2023-07-29T08:58:50;99209.06;;;28.72;44.81
77526;BME280;66627;29.424;-98.496;2023-07-29T09:01:16;99207.94;;;29.55;43.70
77526;BME280;66627;29.424;-98.496;2023-07-29T09:03:42;99206.87;;;29.61;43.62
77526;BME280;66627;29.424;-98.496;2023-07-29T09:06:07;99210.93;;;29.01;44.68
77526;BME280;66627;29.424;-98.496;2023-07-29T09:08:33;99215.68;;;29.41;43.94
77526;BME280;66627;29.424;-98.496;2023-07-29T09:10:58;99218.53;;;28.87;44.44
77526;BME280;66627;29.424;-98.496;2023-07-29T09:13:23;99215.45;;;27.97;46.12
77526;BME280;66627;29.424;-98.496;2023-07-29T09:15:49;99219.06;;;29.19;44.32
77526;BME280;66627;29.424;-98.496;2023-07-29T09:18:16;99212.97;;;28.12;45.61
77526;BME280;66627;29.424;-98.496;2023-07-29T09:20:39;99214.06;;;29.22;44.48
77526;BME280;66627;29.424;-98.496;2023-07-29T09:23:08;99211.11;;;29.22;44.21
77526;BME280;66627;29.424;-98.496;2023-07-29T09:25:30;99203.70;;;29.19;44.07
77526;BME280;66627;29.424;-98.496;2023-07-29T09:28:00;99207.17;;;29.36;44.02
77526;BME280;66627;29.424;-98.496;2023-07-29T09:30:21;99207.96;;;28.49;45.56
77526;BME280;66627;29.424;-98.496;2023-07-29T09:32:46;99212.57;;;28.68;44.90
77526;BME280;66627;29.424;-98.496;2023-07-29T09:35:12;99214.99;;;29.11;44.69
77526;BME280;66627;29.424;-98.496;2023-07-29T09:37:38;99213.16;;;28.95;45.07
77526;BME280;66627;29.424;-98.496;2023-07-29T09:40:03;99210.88;;;28.81;45.38
77526;BME280;66627;29.424;-98.496;2023-07-29T09:42:28;99211.79;;;28.58;45.55
77526;BME280;66627;29.424;-98.496;2023-07-29T09:44:54;99209.66;;;29.00;44.68
77526;BME280;66627;29.424;-98.496;2023-07-29T09:47:21;99208.00;;;28.80;45.33
77526;BME280;66627;29.424;-98.496;2023-07-29T09:49:45;99210.25;;;29.19;44.94
77526;BME280;66627;29.424;-98.496;2023-07-29T09:52:10;99205.95;;;28.41;46.06
77526;BME280;66627;29.424;-98.496;2023-07-29T09:54:37;99211.40;;;29.23;44.96
77526;BME280;66627;29.424;-98.496;2023-07-29T09:57:01;99213.96;;;28.89;45.05
77526;BME280;66627;29.424;-98.496;2023-07-29T09:59:26;99220.09;;;29.18;44.59
77526;BME280;66627;29.424;-98.496;2023-07-29T10:01:51;99221.03;;;28.66;45.76
77526;BME280;66627;29.424;-98.496;2023-07-29T10:04:17;99224.46;;;28.95;44.86
77526;BME280;66627;29.424;-98.496;2023-07-29T10:06:42;99224.03;;;28.95;45.18
77526;BME280;66627;29.424;-98.496;2023-07-29T10:09:07;99226.44;;;27.08;48.67
77526;BME280;66627;29.424;-98.496;2023-07-29T10:11:33;99224.79;;;28.42;46.07
77526;BME280;66627;29.424;-98.496;2023-07-29T10:13:58;99228.66;;;28.25;46.81
77526;BME280;66627;29.424;-98.496;2023-07-29T10:16:24;99225.87;;;28.95;46.10
77526;BME280;66627;29.424;-98.496;2023-07-29T10:18:49;99223.87;;;28.20;46.41
77526;BME280;66627;29.424;-98.496;2023-07-29T10:21:14;99220.63;;;28.39;46.21
77526;BME280;66627;29.424;-98.496;2023-07-29T10:23:43;99217.96;;;28.62;45.28
77526;BME280;66627;29.424;-98.496;2023-07-29T10:26:06;99215.87;;;28.82;45.14
77526;BME280;66627;29.424;-98.496;2023-07-29T10:28:32;99214.96;;;28.60;45.43
77526;BME280;66627;29.424;-98.496;2023-07-29T10:30:57;99220.73;;;28.52;45.42
77526;BME280;66627;29.424;-98.496;2023-07-29T10:33:21;99226.76;;;28.32;46.15
77526;BME280;66627;29.424;-98.496;2023-07-29T10:35:47;99227.67;;;28.98;45.42
77526;BME280;66627;29.424;-98.496;2023-07-29T10:38:12;99232.93;;;28.92;45.59
77526;BME280;66627;29.424;-98.496;2023-07-29T10:40:47;99240.76;;;28.20;46.06
77526;BME280;66627;29.424;-98.496;2023-07-29T10:43:09;99244.42;;;28.79;45.98
77526;BME280;66627;29.424;-98.496;2023-07-29T10:45:38;99248.17;;;28.31;46.52
77526;BME280;66627;29.424;-98.496;2023-07-29T10:47:54;99250.71;;;28.69;46.49
77526;BME280;66627;29.424;-98.496;2023-07-29T10:50:21;99249.97;;;28.20;46.33
77526;BME280;66627;29.424;-98.496;2023-07-29T10:52:49;99249.80;;;28.30;46.54
77526;BME280;66627;29.424;-98.496;2023-07-29T10:55:25;99254.23;;;28.49;46.06
77526;BME280;66627;29.424;-98.496;2023-07-29T10:57:37;99260.78;;;28.17;46.01
77526;BME280;66627;29.424;-98.496;2023-07-29T11:00:02;99265.96;;;28.53;45.50
77526;BME280;66627;29.424;-98.496;2023-07-29T11:02:31;99266.76;;;28.15;46.58
77526;BME280;66627;29.424;-98.496;2023-07-29T11:04:53;99267.10;;;27.85;46.75
77526;BME280;66627;29.424;-98.496;2023-07-29T11:07:22;99264.27;;;28.26;46.10
77526;BME280;66627;29.424;-98.496;2023-07-29T11:09:51;99267.24;;;28.44;46.05
77526;BME280;66627;29.424;-98.496;2023-07-29T11:14:33;99271.87;;;28.10;46.11
77526;BME280;66627;29.424;-98.496;2023-07-29T11:17:00;99270.32;;;27.81;47.56
77526;BME280;66627;29.424;-98.496;2023-07-29T11:19:24;99267.88;;;28.25;46.70
77526;BME280;66627;29.424;-98.496;2023-07-29T11:21:49;99266.03;;;27.78;47.64
77526;BME280;66627;29.424;-98.496;2023-07-29T11:24:18;99266.47;;;27.84;46.36
77526;BME280;66627;29.424;-98.496;2023-07-29T11:26:46;99267.65;;;27.47;47.29
77526;BME280;66627;29.424;-98.496;2023-07-29T11:29:06;99267.20;;;28.09;46.70
77526;BME280;66627;29.424;-98.496;2023-07-29T11:31:39;99267.05;;;27.48;47.79
77526;BME280;66627;29.424;-98.496;2023-07-29T11:33:57;99269.62;;;27.77;46.74
77526;BME280;66627;29.424;-98.496;2023-07-29T11:36:22;99269.10;;;27.68;46.94
77526;BME280;66627;29.424;-98.496;2023-07-29T11:38:48;99268.97;;;28.03;46.69
77526;BME280;66627;29.424;-98.496;2023-07-29T11:41:19;99269.03;;;27.34;47.59
77526;BME280;66627;29.424;-98.496;2023-07-29T11:43:38;99271.51;;;27.61;47.37
77526;BME280;66627;29.424;-98.496;2023-07-29T11:46:05;99271.76;;;27.79;47.28
77526;BME280;66627;29.424;-98.496;2023-07-29T11:48:38;99272.04;;;27.65;46.88
77526;BME280;66627;29.424;-98.496;2023-07-29T11:50:56;99268.78;;;27.29;46.96
77526;BME280;66627;29.424;-98.496;2023-07-29T11:53:21;99268.65;;;27.47;47.01
77526;BME280;66627;29.424;-98.496;2023-07-29T11:55:51;99273.05;;;27.77;46.86
77526;BME280;66627;29.424;-98.496;2023-07-29T11:58:16;99282.49;;;27.57;47.17
77526;BME280;66627;29.424;-98.496;2023-07-29T12:00:38;99285.17;;;27.58;47.85
77526;BME280;66627;29.424;-98.496;2023-07-29T12:03:02;99285.25;;;27.29;47.72
77526;BME280;66627;29.424;-98.496;2023-07-29T12:05:28;99288.31;;;27.63;47.40
77526;BME280;66627;29.424;-98.496;2023-07-29T12:07:54;99291.66;;;27.62;46.76
77526;BME280;66627;29.424;-98.496;2023-07-29T12:10:18;99295.16;;;27.72;46.94
77526;BME280;66627;29.424;-98.496;2023-07-29T12:12:48;99301.71;;;27.67;47.08
77526;BME280;66627;29.424;-98.496;2023-07-29T12:15:10;99301.02;;;27.63;47.11
77526;BME280;66627;29.424;-98.496;2023-07-29T12:17:40;99301.34;;;27.94;46.95
77526;BME280;66627;29.424;-98.496;2023-07-29T12:20:01;99299.94;;;27.50;48.33
77526;BME280;66627;29.424;-98.496;2023-07-29T12:22:26;99308.43;;;27.13;49.35
77526;BME280;66627;29.424;-98.496;2023-07-29T12:24:52;99313.73;;;27.30;48.52
77526;BME280;66627;29.424;-98.496;2023-07-29T12:27:19;99317.29;;;27.44;48.10
77526;BME280;66627;29.424;-98.496;2023-07-29T12:29:42;99318.32;;;27.99;47.57
77526;BME280;66627;29.424;-98.496;2023-07-29T12:32:07;99324.67;;;26.86;48.82
77526;BME280;66627;29.424;-98.496;2023-07-29T12:34:33;99328.87;;;26.14;51.21